Time;durP1;ratioP1;P1;durP2;ratioP2;P2;SDS_P1;SDS_P2;PMS_P1;PMS_P2;Temp;Humidity;BMP_temperature;BMP_pressure;BME280_temperature;BME280_humidity;BME280_pressure;Samples;Min_cycle;Max_cycle;Signal;HPM_P1;HPM_P2
2023/08/13 00:04:27;;;;;;;3.38;1.63;;;;;;;22.53;68.71;100500.19;10382055;28;20097;-72
2023/08/13 00:09:28;;;;;;;6.22;1.90;;;;;;;22.49;68.78;100487.22;10380014;28;20052;-73
2023/08/13 00:14:30;;;;;;;4.05;1.88;;;;;;;22.43;68.91;100497.28;10380078;28;20393;-72
2023/08/13 00:19:31;;;;;;;2.78;1.48;;;;;;;22.35;68.96;100490.34;10377415;28;20253;-71
2023/08/13 00:24:32;;;;;;;2.85;1.23;;;;;;;22.31;68.97;100491.91;10377338;28;20072;-71
2023/08/13 00:29:34;;;;;;;3.15;1.05;;;;;;;22.23;69.25;100488.72;10379637;28;20042;-73
2023/08/13 00:34:35;;;;;;;5.88;1.70;;;;;;;22.13;69.42;100500.34;10378178;28;23299;-72
2023/08/13 00:39:37;;;;;;;3.55;1.33;;;;;;;22.03;69.86;100505.66;10380598;28;20096;-72
2023/08/13 00:44:38;;;;;;;4.30;2.33;;;;;;;22.03;69.71;100495.53;10379067;28;20440;-72
2023/08/13 00:49:40;;;;;;;2.13;1.33;;;;;;;22.02;69.25;100488.41;10375064;28;20069;-72
2023/08/13 00:54:42;;;;;;;2.33;1.77;;;;;;;21.94;69.65;100500.59;10380137;28;20056;-73
2023/08/13 00:59:44;;;;;;;3.40;1.85;;;;;;;21.89;69.93;100497.75;10380137;28;20472;-73
2023/08/13 01:04:45;;;;;;;3.75;1.83;;;;;;;21.86;69.54;100505.63;10378689;28;20117;-71
2023/08/13 01:10:09;;;;;;;4.88;1.58;;;;;;;21.77;69.85;100507.97;10377284;28;20056;-72
2023/08/13 01:15:15;;;;;;;5.93;1.70;;;;;;;21.71;70.13;100506.22;10377639;28;20046;-72
2023/08/13 01:20:18;;;;;;;6.37;1.77;;;;;;;21.55;70.16;100499.63;10380575;28;20357;-72
2023/08/13 01:25:21;;;;;;;3.72;1.45;;;;;;;21.38;70.82;100497.63;10383126;28;20050;-73
2023/08/13 01:30:29;;;;;;;3.85;1.33;;;;;;;21.19;71.05;100499.75;10387339;28;20061;-71
2023/08/13 01:35:32;;;;;;;3.10;1.63;;;;;;;21.17;70.75;100512.00;10386006;28;20070;-72
2023/08/13 01:40:33;;;;;;;3.35;1.30;;;;;;;21.17;70.74;100507.34;10386010;28;20306;-72
2023/08/13 01:45:35;;;;;;;3.88;1.00;;;;;;;21.07;71.15;100509.88;10387859;28;20073;-72
2023/08/13 01:50:38;;;;;;;4.95;1.10;;;;;;;21.04;70.98;100512.25;10383016;28;20045;-71
2023/08/13 01:55:39;;;;;;;4.97;1.30;;;;;;;21.03;70.82;100507.84;10385082;28;20077;-73
2023/08/13 02:00:41;;;;;;;1.77;1.00;;;;;;;21.02;70.94;100498.84;10384286;28;20088;-72
2023/08/13 02:05:42;;;;;;;6.40;0.95;;;;;;;20.98;71.00;100501.22;10385306;28;20045;-71
2023/08/13 02:10:44;;;;;;;2.63;1.55;;;;;;;20.88;71.21;100494.72;10382352;28;20097;-72
2023/08/13 02:15:45;;;;;;;1.10;0.90;;;;;;;20.82;71.25;100485.56;10385145;28;21228;-70
2023/08/13 02:20:47;;;;;;;3.40;1.10;;;;;;;20.63;71.98;100501.25;10382957;28;20098;-72
2023/08/13 02:25:49;;;;;;;2.83;1.00;;;;;;;20.52;72.25;100504.81;10380474;28;20312;-73
2023/08/13 02:30:51;;;;;;;1.98;0.93;;;;;;;20.56;72.00;100493.19;10383666;28;20117;-71
2023/08/13 02:35:53;;;;;;;2.50;0.70;;;;;;;20.61;71.48;100495.22;10381944;28;20049;-71
2023/08/13 02:40:54;;;;;;;3.83;0.80;;;;;;;20.60;71.56;100499.03;10384316;28;20080;-71
2023/08/13 02:45:56;;;;;;;5.25;0.98;;;;;;;20.59;71.55;100497.34;10383980;28;20365;-71
2023/08/13 02:50:57;;;;;;;1.20;0.60;;;;;;;20.62;71.99;100496.88;10382331;28;20046;-71
2023/08/13 02:55:58;;;;;;;2.53;0.82;;;;;;;20.64;71.35;100507.59;10384656;28;20474;-71
2023/08/13 03:01:00;;;;;;;8.63;1.00;;;;;;;20.63;71.39;100509.47;10380302;28;20057;-71
2023/08/13 03:06:01;;;;;;;2.42;0.70;;;;;;;20.64;71.51;100507.59;10378421;28;20101;-72
2023/08/13 03:11:03;;;;;;;2.95;0.88;;;;;;;20.60;71.54;100510.78;10383656;28;20121;-71
2023/08/13 03:16:05;;;;;;;1.88;0.70;;;;;;;20.58;71.17;100507.44;10384338;28;20041;-72
2023/08/13 03:21:06;;;;;;;2.25;0.73;;;;;;;20.54;71.47;100510.88;10382023;28;20235;-71
2023/08/13 03:26:07;;;;;;;2.63;0.90;;;;;;;20.50;71.63;100512.44;10382755;28;20112;-72
2023/08/13 03:31:09;;;;;;;8.52;0.90;;;;;;;20.45;71.31;100507.66;10382424;28;20501;-71
2023/08/13 03:36:10;;;;;;;2.58;0.80;;;;;;;20.42;71.14;100494.50;10381229;28;20049;-73
2023/08/13 03:41:12;;;;;;;4.60;0.80;;;;;;;20.36;71.25;100498.19;10381125;28;20121;-73
2023/08/13 03:46:13;;;;;;;2.83;1.20;;;;;;;20.34;71.64;100497.56;10380571;28;20072;-72
2023/08/13 03:51:15;;;;;;;2.67;1.20;;;;;;;20.37;71.42;100494.38;10382800;28;20042;-72
2023/08/13 03:56:16;;;;;;;1.55;0.90;;;;;;;20.24;72.01;100495.44;10380935;28;20418;-71
2023/08/13 04:01:17;;;;;;;2.35;0.70;;;;;;;20.14;72.10;100503.38;10380091;28;20057;-71
2023/08/13 04:06:19;;;;;;;2.58;0.75;;;;;;;20.20;72.06;100505.16;10382479;28;20096;-72
2023/08/13 04:11:20;;;;;;;2.83;0.65;;;;;;;20.10;72.49;100504.91;10378247;28;20121;-78
2023/08/13 04:16:22;;;;;;;3.45;0.90;;;;;;;20.15;71.88;100499.59;10381266;28;20068;-76
2023/08/13 04:21:25;;;;;;;3.63;0.93;;;;;;;20.25;71.90;100497.09;10381745;28;20052;-76
2023/08/13 04:26:26;;;;;;;3.65;0.82;;;;;;;20.13;72.43;100501.72;10378620;28;20362;-79
2023/08/13 04:31:28;;;;;;;2.75;0.75;;;;;;;20.28;71.94;100503.97;10381979;28;20113;-78
2023/08/13 04:36:29;;;;;;;2.20;1.10;;;;;;;20.40;71.93;100502.09;10383751;28;20067;-77
2023/08/13 04:41:30;;;;;;;4.93;0.60;;;;;;;20.48;72.02;100499.00;10387268;28;20086;-79
2023/08/13 04:46:32;;;;;;;1.83;0.50;;;;;;;20.53;71.61;100496.38;10382637;28;20073;-77
2023/08/13 04:51:33;;;;;;;4.88;0.77;;;;;;;20.57;71.42;100503.00;10382375;28;20108;-78
2023/08/13 04:56:35;;;;;;;3.35;0.63;;;;;;;20.52;71.54;100499.38;10381638;28;20050;-78
2023/08/13 05:01:36;;;;;;;2.55;0.70;;;;;;;20.56;71.76;100519.66;10382174;28;20060;-78
2023/08/13 05:06:38;;;;;;;1.77;0.70;;;;;;;20.54;72.03;100510.88;10389371;28;20128;-77
2023/08/13 05:11:39;;;;;;;1.50;0.70;;;;;;;20.68;71.63;100508.75;10387400;28;20350;-76
2023/08/13 05:16:41;;;;;;;4.38;0.63;;;;;;;20.83;71.34;100500.06;10387499;28;20045;-77
2023/08/13 05:21:42;;;;;;;1.63;0.85;;;;;;;20.92;71.03;100507.66;10390390;28;20060;-76
2023/08/13 05:26:44;;;;;;;1.95;0.70;;;;;;;20.80;71.42;100504.94;10370402;28;20273;-76
2023/08/13 05:31:49;;;;;;;3.40;0.80;;;;;;;20.92;71.57;100501.34;10396390;28;20042;-78
2023/08/13 05:36:50;;;;;;;2.17;0.82;;;;;;;21.06;71.34;100521.88;10387198;28;20320;-77
2023/08/13 05:41:52;;;;;;;2.22;0.93;;;;;;;21.22;70.77;100517.56;10371976;28;20273;-76
2023/08/13 05:46:53;;;;;;;1.08;0.95;;;;;;;21.43;70.67;100523.44;10386594;28;20054;-77
2023/08/13 05:51:54;;;;;;;2.83;1.13;;;;;;;21.58;70.44;100510.06;10385677;28;20049;-75
2023/08/13 05:56:56;;;;;;;6.03;3.42;;;;;;;21.68;70.45;100509.44;10388585;28;20068;-77
2023/08/13 06:01:57;;;;;;;7.20;3.33;;;;;;;21.82;70.17;100515.41;10385497;28;20417;-77
2023/08/13 06:06:59;;;;;;;3.40;2.17;;;;;;;21.90;70.25;100520.47;10386108;28;20068;-77
2023/08/13 06:12:00;;;;;;;2.97;1.23;;;;;;;22.01;70.33;100516.03;10388562;28;20042;-78
2023/08/13 06:17:02;;;;;;;2.40;0.80;;;;;;;22.05;70.26;100523.50;10384505;28;20257;-77
2023/08/13 06:22:15;;;;;;;2.05;0.70;;;;;;;22.12;69.99;100537.03;10386515;28;20468;-76
2023/08/13 06:27:17;;;;;;;2.25;0.70;;;;;;;22.10;69.96;100528.25;10394223;28;20409;-74
2023/08/13 06:32:19;;;;;;;2.08;1.10;;;;;;;22.23;69.99;100533.38;10386542;28;20109;-77
2023/08/13 06:37:20;;;;;;;5.57;1.67;;;;;;;22.33;69.95;100530.84;10387459;28;20297;-77
2023/08/13 06:42:23;;;;;;;7.32;2.75;;;;;;;22.45;70.02;100527.16;10387372;28;20046;-74
2023/08/13 06:47:24;;;;;;;3.47;1.55;;;;;;;22.63;69.78;100524.19;10379538;28;20064;-75
2023/08/13 06:52:26;;;;;;;2.50;1.88;;;;;;;22.84;69.63;100519.78;10385469;28;20045;-76
2023/08/13 06:57:27;;;;;;;6.38;1.88;;;;;;;22.94;69.65;100530.88;10370253;28;20250;-76
2023/08/13 07:02:29;;;;;;;6.65;2.25;;;;;;;23.10;69.04;100522.91;10383573;28;20061;-76
2023/08/13 07:07:30;;;;;;;3.40;1.98;;;;;;;23.22;69.35;100520.03;10383063;28;20296;-78
2023/08/13 07:12:32;;;;;;;4.60;2.50;;;;;;;23.33;69.45;100530.84;10385716;28;20052;-75
2023/08/13 07:17:33;;;;;;;3.40;2.10;;;;;;;23.37;69.44;100528.44;10381560;28;20368;-76
2023/08/13 07:22:37;;;;;;;5.47;1.92;;;;;;;23.44;69.10;100520.00;10369077;28;20277;-78
2023/08/13 07:27:39;;;;;;;3.55;2.22;;;;;;;23.52;69.11;100525.06;10380702;28;20073;-78
2023/08/13 07:32:41;;;;;;;7.22;2.20;;;;;;;23.68;68.87;100518.63;10375146;28;20057;-77
2023/08/13 07:37:43;;;;;;;4.47;2.80;;;;;;;23.80;68.75;100536.91;10381422;28;20109;-78
2023/08/13 07:42:45;;;;;;;3.42;1.63;;;;;;;23.91;68.56;100525.75;10382447;28;20042;-77
2023/08/13 07:47:46;;;;;;;2.70;1.50;;;;;;;23.99;67.96;100532.66;10382318;28;20057;-75
2023/08/13 07:52:47;;;;;;;1.95;1.00;;;;;;;24.15;67.74;100528.13;10380005;28;20046;-76
2023/08/13 07:57:49;;;;;;;3.22;1.40;;;;;;;24.11;67.77;100530.59;10380270;28;20038;-77
2023/08/13 08:02:50;;;;;;;3.90;1.25;;;;;;;24.25;67.38;100532.88;10380433;28;20502;-78
2023/08/13 08:07:52;;;;;;;3.97;1.25;;;;;;;24.47;66.60;100535.53;10380814;28;20281;-78
2023/08/13 08:12:53;;;;;;;1.60;0.98;;;;;;;24.75;66.42;100523.38;10381147;28;20258;-77
2023/08/13 08:17:55;;;;;;;3.05;0.90;;;;;;;24.81;65.88;100525.06;10363705;28;20265;-78
2023/08/13 08:22:56;;;;;;;2.08;1.40;;;;;;;24.96;65.23;100527.06;10391356;28;20049;-77
2023/08/13 08:27:58;;;;;;;2.00;0.80;;;;;;;25.12;64.98;100517.78;10382162;28;20133;-78
2023/08/13 08:32:59;;;;;;;2.85;0.90;;;;;;;25.16;64.17;100517.22;10382278;28;20065;-76
2023/08/13 08:38:00;;;;;;;1.92;0.85;;;;;;;25.40;62.64;100509.38;10388508;28;20049;-77
2023/08/13 08:43:02;;;;;;;2.58;0.70;;;;;;;25.25;62.77;100515.66;10390323;28;20042;-79
2023/08/13 08:48:07;;;;;;;1.65;0.60;;;;;;;25.32;62.57;100514.31;10389577;28;20105;-77
2023/08/13 08:53:10;;;;;;;1.10;0.77;;;;;;;25.38;61.32;100512.41;10389367;28;20230;-79
2023/08/13 08:58:11;;;;;;;1.88;0.50;;;;;;;25.51;60.97;100514.63;10390773;28;20105;-77
2023/08/13 09:03:12;;;;;;;1.30;0.77;;;;;;;25.61;60.62;100516.59;10389432;28;20046;-79
2023/08/13 09:08:15;;;;;;;2.47;0.40;;;;;;;25.62;60.15;100518.22;10388626;28;20100;-79
2023/08/13 09:13:17;;;;;;;1.42;0.68;;;;;;;25.62;59.89;100507.22;10389353;28;20048;-77
2023/08/13 09:18:19;;;;;;;1.75;0.57;;;;;;;25.65;59.62;100511.34;10389701;28;20049;-78
2023/08/13 09:23:22;;;;;;;2.28;0.50;;;;;;;25.73;58.58;100497.88;10402359;28;20211;-79
2023/08/13 09:28:24;;;;;;;2.35;0.50;;;;;;;25.75;57.98;100494.84;10387042;28;20076;-79
2023/08/13 09:33:26;;;;;;;3.47;0.95;;;;;;;25.91;57.77;100499.28;10386527;28;20365;-79
2023/08/13 09:38:27;;;;;;;1.77;0.60;;;;;;;25.90;57.52;100496.78;10386289;28;20048;-76
2023/08/13 09:43:31;;;;;;;3.42;0.80;;;;;;;26.08;57.14;100487.16;10387242;28;20053;-76
2023/08/13 09:48:33;;;;;;;0.55;0.40;;;;;;;26.12;56.82;100491.84;10385540;28;20048;-79
2023/08/13 09:53:36;;;;;;;2.05;0.65;;;;;;;26.36;55.82;100476.66;10370833;28;20044;-79
2023/08/13 09:58:38;;;;;;;2.05;0.45;;;;;;;26.58;55.15;100479.09;10387606;28;20046;-77
2023/08/13 10:03:39;;;;;;;2.30;0.50;;;;;;;26.61;53.96;100473.06;10386125;28;20090;-77
2023/08/13 10:08:42;;;;;;;2.13;0.50;;;;;;;26.51;53.78;100466.44;10388328;28;20052;-78
2023/08/13 10:13:43;;;;;;;1.80;0.60;;;;;;;26.57;53.46;100478.28;10387695;28;20061;-76
2023/08/13 10:18:46;;;;;;;1.60;0.52;;;;;;;26.88;52.81;100476.28;10387577;28;20073;-76
2023/08/13 10:23:47;;;;;;;3.15;0.50;;;;;;;26.86;53.05;100477.66;10393892;28;20065;-77
2023/08/13 10:28:53;;;;;;;0.98;0.50;;;;;;;27.24;52.10;100469.78;10389349;28;20354;-76
2023/08/13 10:34:19;;;;;;;1.40;0.40;;;;;;;27.28;52.06;100473.63;10386661;28;20072;-78
2023/08/13 10:39:36;;;;;;;3.50;0.70;;;;;;;27.22;52.17;100472.81;10380853;28;20365;-77
2023/08/13 10:44:41;;;;;;;1.15;0.50;;;;;;;27.69;50.92;100479.72;10378276;28;20056;-74
2023/08/13 10:49:42;;;;;;;2.33;0.50;;;;;;;27.95;50.58;100485.06;10380563;28;20074;-76
2023/08/13 10:54:43;;;;;;;1.63;0.40;;;;;;;28.01;50.21;100488.63;10384293;28;20045;-76
2023/08/13 10:59:45;;;;;;;2.38;0.50;;;;;;;28.11;50.37;100480.22;10380105;28;20107;-78
2023/08/13 11:04:47;;;;;;;1.05;0.60;;;;;;;28.20;49.25;100470.19;10382865;28;20052;-76
2023/08/13 11:09:49;;;;;;;3.65;0.60;;;;;;;27.93;49.73;100470.72;10383637;28;20037;-75
2023/08/13 11:14:50;;;;;;;2.20;0.65;;;;;;;27.95;49.58;100465.72;10384736;28;20050;-76
2023/08/13 11:19:56;;;;;;;1.83;0.50;;;;;;;28.11;48.49;100471.94;10383874;28;20041;-78
2023/08/13 11:24:58;;;;;;;0.90;0.55;;;;;;;27.96;48.00;100481.19;10385712;28;20068;-77
2023/08/13 11:29:59;;;;;;;3.30;0.50;;;;;;;27.63;48.19;100480.03;10385415;28;20303;-78
2023/08/13 11:35:05;;;;;;;3.45;0.60;;;;;;;27.59;48.33;100473.44;10396496;28;20057;-77
2023/08/13 11:40:10;;;;;;;1.17;0.63;;;;;;;27.68;48.22;100472.53;10423361;28;20045;-76
2023/08/13 11:45:52;;;;;;;1.17;0.50;;;;;;;27.92;48.40;100482.88;10403761;28;20022;-77
2023/08/13 11:51:14;;;;;;;2.28;0.63;;;;;;;27.59;48.52;100470.69;10395037;28;20088;-75
2023/08/13 11:56:21;;;;;;;3.33;0.70;;;;;;;27.81;48.19;100465.53;10389627;28;20050;-74
2023/08/13 12:01:23;;;;;;;2.38;0.65;;;;;;;27.79;48.59;100459.47;10388048;28;20046;-73
2023/08/13 12:06:25;;;;;;;1.88;0.50;;;;;;;27.71;48.29;100465.63;10385467;28;20088;-75
2023/08/13 12:11:27;;;;;;;2.95;0.70;;;;;;;27.53;48.67;100469.03;10387579;28;20080;-75
2023/08/13 12:16:28;;;;;;;1.83;0.43;;;;;;;27.60;48.04;100461.28;10386517;28;20254;-76
2023/08/13 12:21:30;;;;;;;1.70;0.73;;;;;;;27.43;48.55;100454.22;10387949;28;20042;-75
2023/08/13 12:26:32;;;;;;;3.70;0.70;;;;;;;27.70;48.18;100445.44;10390582;28;20089;-76
2023/08/13 12:31:34;;;;;;;1.30;0.50;;;;;;;28.00;47.64;100446.34;10384403;28;20113;-74
2023/08/13 12:36:36;;;;;;;1.30;0.57;;;;;;;28.21;46.70;100435.91;10388468;28;20080;-78
2023/08/13 12:41:37;;;;;;;2.42;0.60;;;;;;;28.34;46.56;100433.53;10388457;28;20373;-75
2023/08/13 12:46:41;;;;;;;0.98;0.50;;;;;;;28.49;45.51;100419.56;10389979;28;20053;-76
2023/08/13 12:51:42;;;;;;;1.45;0.50;;;;;;;28.80;45.01;100416.47;10385473;28;20084;-74
2023/08/13 12:56:43;;;;;;;0.70;0.40;;;;;;;28.80;44.19;100414.50;10384973;28;21316;-75
2023/08/13 13:01:45;;;;;;;0.98;0.60;;;;;;;28.64;44.16;100419.41;10383307;28;20065;-76
2023/08/13 13:06:46;;;;;;;1.52;0.65;;;;;;;28.77;43.78;100422.56;10384529;28;20315;-74
2023/08/13 13:11:48;;;;;;;4.15;0.43;;;;;;;29.03;42.93;100414.78;10384424;28;20046;-74
2023/08/13 13:16:49;;;;;;;1.90;0.50;;;;;;;29.44;41.04;100408.63;10386674;28;20057;-73
2023/08/13 13:21:51;;;;;;;1.70;0.30;;;;;;;29.45;40.11;100404.75;10386412;28;20077;-75
2023/08/13 13:26:52;;;;;;;1.52;0.30;;;;;;;29.75;39.38;100402.63;10389952;28;20084;-75
2023/08/13 13:31:54;;;;;;;3.95;0.88;;;;;;;30.14;37.88;100404.16;10392263;28;20129;-72
2023/08/13 13:36:55;;;;;;;2.42;0.40;;;;;;;30.13;37.30;100403.31;10392169;28;20089;-77
2023/08/13 13:41:57;;;;;;;3.60;0.40;;;;;;;30.23;36.79;100403.13;10377122;28;20045;-75
2023/08/13 13:46:58;;;;;;;1.10;0.40;;;;;;;30.24;36.80;100398.41;10383801;28;20057;-75
2023/08/13 13:52:03;;;;;;;1.50;0.40;;;;;;;30.30;36.45;100404.69;10393546;28;20444;-76
2023/08/13 13:57:04;;;;;;;1.70;0.40;;;;;;;29.95;36.65;100410.56;10392027;28;20038;-75
2023/08/13 14:02:06;;;;;;;1.52;0.45;;;;;;;29.77;36.77;100417.00;10393014;28;20113;-75
2023/08/13 14:07:07;;;;;;;1.30;0.40;;;;;;;29.77;36.34;100414.22;10402541;28;20284;-75
2023/08/13 14:12:09;;;;;;;1.17;0.30;;;;;;;29.49;37.45;100413.28;10392272;28;20345;-72
2023/08/13 14:17:10;;;;;;;1.25;0.30;;;;;;;29.39;37.12;100412.31;10393113;28;20050;-75
2023/08/13 14:22:12;;;;;;;0.85;0.30;;;;;;;29.52;37.11;100402.41;10392290;28;20074;-76
2023/08/13 14:27:14;;;;;;;1.83;0.47;;;;;;;29.62;37.49;100404.19;10392703;28;20087;-73
2023/08/13 14:32:16;;;;;;;1.30;0.40;;;;;;;29.74;37.31;100398.19;10391929;28;20056;-74
2023/08/13 14:37:18;;;;;;;2.42;0.50;;;;;;;30.16;37.30;100393.56;10394043;28;24710;-76
2023/08/13 14:42:19;;;;;;;1.48;0.40;;;;;;;30.18;36.58;100394.09;10391602;28;20261;-74
2023/08/13 14:47:21;;;;;;;1.23;0.40;;;;;;;29.87;36.97;100377.19;10392771;28;20049;-75
2023/08/13 14:52:22;;;;;;;2.90;0.60;;;;;;;29.77;37.16;100376.25;10389794;28;20069;-74
2023/08/13 14:57:24;;;;;;;1.38;0.40;;;;;;;29.74;37.21;100371.34;10391776;28;20046;-74
2023/08/13 15:02:25;;;;;;;1.95;0.35;;;;;;;29.87;36.91;100372.47;10386710;28;20049;-73
2023/08/13 15:07:27;;;;;;;1.35;0.40;;;;;;;30.15;36.53;100364.19;10381283;28;20492;-73
2023/08/13 15:12:29;;;;;;;4.03;0.50;;;;;;;30.22;37.45;100362.66;10389133;28;20026;-76
2023/08/13 15:17:43;;;;;;;1.50;0.40;;;;;;;30.57;35.42;100363.09;10375275;28;20302;-74
2023/08/13 15:22:44;;;;;;;2.50;0.40;;;;;;;30.75;35.24;100361.31;10379387;28;20227;-75
2023/08/13 15:27:46;;;;;;;0.95;0.30;;;;;;;30.80;35.33;100357.59;10381146;28;20398;-73
2023/08/13 15:32:47;;;;;;;2.15;0.50;;;;;;;30.61;35.66;100349.44;10379859;28;20074;-75
2023/08/13 15:37:48;;;;;;;1.60;0.30;;;;;;;30.69;35.31;100354.25;10374733;28;20053;-75
2023/08/13 15:42:50;;;;;;;1.85;0.30;;;;;;;30.96;35.83;100333.91;10378501;28;20048;-75
2023/08/13 15:47:52;;;;;;;1.88;0.50;;;;;;;31.55;35.32;100341.41;10383585;28;20081;-75
2023/08/13 15:52:53;;;;;;;3.92;0.40;;;;;;;31.82;34.33;100321.78;10379921;28;20054;-76
2023/08/13 15:57:56;;;;;;;3.65;0.45;;;;;;;32.29;34.18;100318.56;10382469;28;20049;-75
2023/08/13 16:02:59;;;;;;;1.17;0.40;;;;;;;32.76;33.75;100321.63;10380731;28;20114;-73
2023/08/13 16:08:00;;;;;;;1.15;0.30;;;;;;;33.24;33.15;100319.84;10364372;28;20065;-72
2023/08/13 16:13:03;;;;;;;3.10;0.50;;;;;;;33.66;32.46;100308.13;10380980;28;21003;-74
2023/08/13 16:18:08;;;;;;;4.50;0.45;;;;;;;33.77;31.64;100301.88;10362442;28;20046;-77
2023/08/13 16:23:12;;;;;;;2.25;0.40;;;;;;;32.79;33.04;100295.91;10382723;28;20056;-75
2023/08/13 16:28:13;;;;;;;0.60;0.30;;;;;;;32.71;32.88;100293.94;10387946;28;20526;-75
2023/08/13 16:33:15;;;;;;;3.15;0.50;;;;;;;33.04;32.52;100293.44;10378329;28;20173;-76
2023/08/13 16:38:16;;;;;;;2.55;0.43;;;;;;;33.38;32.33;100289.00;10380011;28;20117;-75
2023/08/13 16:43:18;;;;;;;1.58;0.30;;;;;;;33.80;32.35;100286.44;10379967;28;20080;-77
2023/08/13 16:48:21;;;;;;;3.65;0.40;;;;;;;33.98;31.13;100289.94;10378064;28;20548;-73
2023/08/13 16:53:23;;;;;;;2.90;0.50;;;;;;;34.49;31.44;100276.06;10377375;28;20117;-74
2023/08/13 16:58:25;;;;;;;2.85;0.85;;;;;;;34.94;31.20;100272.59;10392776;28;20081;-75
2023/08/13 17:03:26;;;;;;;0.98;0.40;;;;;;;35.02;30.34;100274.50;10386693;28;20054;-75
2023/08/13 17:08:28;;;;;;;2.85;0.40;;;;;;;34.93;30.38;100273.75;10385211;28;20366;-75
2023/08/13 17:13:30;;;;;;;1.75;0.40;;;;;;;34.57;30.71;100275.16;10382965;28;20066;-75
2023/08/13 17:18:32;;;;;;;2.10;0.60;;;;;;;34.42;31.27;100275.78;10398246;28;20350;-72
2023/08/13 17:23:34;;;;;;;1.58;0.40;;;;;;;34.01;32.00;100266.97;10389953;28;20042;-75
2023/08/13 17:28:35;;;;;;;1.90;0.50;;;;;;;33.58;32.41;100270.72;10390054;28;20050;-74
2023/08/13 17:33:37;;;;;;;1.75;0.47;;;;;;;32.80;33.79;100274.44;10387018;28;20060;-72
2023/08/13 17:38:38;;;;;;;2.40;0.60;;;;;;;32.31;34.21;100276.50;10390224;28;20073;-76
2023/08/13 17:43:40;;;;;;;1.50;0.40;;;;;;;32.22;35.33;100277.28;10388726;28;20346;-75
2023/08/13 17:48:41;;;;;;;0.95;0.40;;;;;;;32.21;35.49;100270.09;10391473;28;20073;-77
2023/08/13 17:53:43;;;;;;;2.13;0.40;;;;;;;31.97;35.31;100261.31;10390391;28;20148;-76
2023/08/13 17:58:44;;;;;;;3.22;0.43;;;;;;;31.58;36.15;100268.53;10393025;28;20053;-77
2023/08/13 18:03:57;;;;;;;2.60;0.43;;;;;;;31.09;36.62;100270.34;10391898;28;20099;-76
2023/08/13 18:08:58;;;;;;;2.90;0.50;;;;;;;30.69;37.06;100284.84;10390635;28;20342;-77
2023/08/13 18:14:06;;;;;;;1.15;0.40;;;;;;;30.30;37.83;100269.59;10391780;28;20402;-76
2023/08/13 18:19:08;;;;;;;2.22;0.57;;;;;;;29.94;38.79;100275.88;10392831;28;20046;-77
2023/08/13 18:24:09;;;;;;;0.45;0.40;;;;;;;29.56;38.98;100276.03;10389337;28;20465;-74
2023/08/13 18:29:10;;;;;;;1.75;0.50;;;;;;;29.25;39.94;100275.75;10387364;28;20061;-77
2023/08/13 18:34:12;;;;;;;1.63;0.52;;;;;;;28.97;40.37;100277.53;10390921;28;20053;-77
2023/08/13 18:39:13;;;;;;;2.58;0.60;;;;;;;28.67;41.66;100271.38;10388525;28;20045;-73
2023/08/13 18:44:15;;;;;;;3.75;0.90;;;;;;;28.40;42.56;100267.31;10388002;28;20044;-76
2023/08/13 18:49:16;;;;;;;3.38;0.80;;;;;;;28.14;42.77;100277.03;10383438;28;20057;-79
2023/08/13 18:54:18;;;;;;;5.07;0.60;;;;;;;27.87;43.91;100283.97;10381484;28;20058;-77
2023/08/13 18:59:19;;;;;;;1.40;0.70;;;;;;;27.63;44.72;100282.00;10378970;28;20045;-77
2023/08/13 19:04:21;;;;;;;2.00;0.70;;;;;;;27.44;45.27;100290.19;10382198;28;20382;-78
2023/08/13 19:09:22;;;;;;;2.55;0.70;;;;;;;26.97;45.95;100297.16;10378827;28;20084;-77
2023/08/13 19:14:24;;;;;;;3.30;0.80;;;;;;;26.87;46.58;100291.72;10381140;28;20077;-77
2023/08/13 19:19:25;;;;;;;4.65;0.80;;;;;;;26.76;47.33;100292.88;10380396;28;20053;-77
2023/08/13 19:24:26;;;;;;;5.03;1.92;;;;;;;26.53;47.69;100300.72;10379405;28;20143;-76
2023/08/13 19:29:28;;;;;;;5.15;1.20;;;;;;;26.36;48.12;100300.25;10382962;28;20061;-76
2023/08/13 19:34:31;;;;;;;4.90;1.73;;;;;;;26.20;49.51;100293.97;10380661;28;20037;-74
2023/08/13 19:39:32;;;;;;;5.00;1.30;;;;;;;25.97;49.78;100300.94;10376237;28;20061;-77
2023/08/13 19:44:34;;;;;;;5.43;1.70;;;;;;;25.77;50.00;100301.78;10378928;28;20049;-77
2023/08/13 19:49:38;;;;;;;4.20;1.67;;;;;;;25.60;50.79;100300.16;10380775;28;20068;-74
2023/08/13 19:54:40;;;;;;;15.52;2.92;;;;;;;25.44;51.38;100302.13;10378563;28;20075;-71
2023/08/13 19:59:41;;;;;;;11.75;4.55;;;;;;;25.25;51.41;100299.09;10376210;28;20348;-72
2023/08/13 20:04:43;;;;;;;8.43;3.30;;;;;;;25.08;51.60;100299.34;10374116;28;20084;-72
2023/08/13 20:09:44;;;;;;;6.80;2.85;;;;;;;24.83;52.45;100294.63;10380760;28;20346;-72
2023/08/13 20:14:47;;;;;;;4.15;1.10;;;;;;;24.68;53.31;100294.59;10378151;28;20057;-72
2023/08/13 20:19:49;;;;;;;7.45;2.08;;;;;;;24.61;53.52;100297.59;10374160;28;20113;-72
2023/08/13 20:24:50;;;;;;;4.70;0.98;;;;;;;24.46;53.81;100305.78;10375058;28;20190;-70
2023/08/13 20:29:52;;;;;;;4.90;1.08;;;;;;;24.24;54.13;100298.53;10376217;28;20038;-72
2023/08/13 20:34:54;;;;;;;5.13;1.05;;;;;;;24.23;54.54;100309.78;10374640;28;20065;-69
2023/08/13 20:39:56;;;;;;;7.38;0.90;;;;;;;24.03;55.21;100303.13;10372878;28;20096;-71
2023/08/13 20:44:57;;;;;;;3.92;0.77;;;;;;;23.98;55.06;100307.75;10375463;28;20881;-70
2023/08/13 20:49:59;;;;;;;6.25;1.35;;;;;;;23.91;55.42;100310.72;10373859;28;20257;-72
2023/08/13 20:55:01;;;;;;;3.55;0.70;;;;;;;23.82;55.43;100309.59;10374493;28;20049;-70
2023/08/13 21:00:05;;;;;;;5.75;0.70;;;;;;;23.59;55.96;100308.84;10372958;28;20069;-71
2023/08/13 21:05:06;;;;;;;4.32;0.80;;;;;;;23.32;56.78;100311.66;10376856;28;20057;-71
2023/08/13 21:10:08;;;;;;;4.43;0.77;;;;;;;23.18;57.43;100314.00;10374121;28;20096;-71
2023/08/13 21:15:10;;;;;;;2.15;0.95;;;;;;;23.17;57.37;100317.84;10378412;28;20075;-71
2023/08/13 21:20:11;;;;;;;2.67;0.77;;;;;;;23.05;57.90;100319.94;10377002;28;20430;-71
2023/08/13 21:25:13;;;;;;;7.28;1.05;;;;;;;23.07;57.57;100312.28;10376204;28;20117;-69
2023/08/13 21:30:14;;;;;;;5.22;1.02;;;;;;;23.08;57.75;100306.50;10375966;28;20069;-71
2023/08/13 21:35:16;;;;;;;1.60;0.60;;;;;;;22.96;57.87;100303.06;10376914;28;20473;-72
2023/08/13 21:40:18;;;;;;;5.05;0.80;;;;;;;22.70;58.58;100302.81;10375330;28;20077;-72
2023/08/13 21:45:19;;;;;;;0.80;0.50;;;;;;;22.67;58.59;100303.34;10378106;28;20524;-72
2023/08/13 21:50:21;;;;;;;3.13;0.70;;;;;;;22.56;58.92;100313.34;10382837;28;20354;-71
2023/08/13 21:55:22;;;;;;;4.88;0.70;;;;;;;22.43;59.18;100313.75;10383961;28;20057;-69
2023/08/13 22:00:24;;;;;;;3.97;0.60;;;;;;;22.33;59.69;100303.53;10380993;28;20041;-71
2023/08/13 22:05:25;;;;;;;3.13;0.70;;;;;;;22.34;59.47;100312.56;10381233;28;20053;-70
2023/08/13 22:10:26;;;;;;;2.47;0.77;;;;;;;22.23;59.74;100313.47;10379915;28;20344;-70
2023/08/13 22:15:28;;;;;;;4.93;0.90;;;;;;;22.13;59.96;100311.44;10381247;28;20053;-70
2023/08/13 22:20:29;;;;;;;6.28;0.65;;;;;;;22.09;60.14;100318.50;10382831;28;20042;-71
2023/08/13 22:25:31;;;;;;;6.68;1.23;;;;;;;22.09;60.10;100315.75;10381693;28;20262;-70
2023/08/13 22:30:32;;;;;;;3.58;1.10;;;;;;;21.93;60.50;100317.44;10382235;28;20048;-71
2023/08/13 22:35:34;;;;;;;2.45;1.20;;;;;;;21.87;60.75;100324.75;10383715;28;20054;-70
2023/08/13 22:40:35;;;;;;;3.00;1.00;;;;;;;21.75;61.16;100326.78;10383238;28;20044;-71
2023/08/13 22:45:37;;;;;;;3.53;1.08;;;;;;;21.64;61.53;100333.97;10386432;28;20133;-71
2023/08/13 22:50:42;;;;;;;5.72;1.35;;;;;;;21.62;61.81;100327.94;10382027;28;20092;-71
2023/08/13 22:55:44;;;;;;;2.63;1.05;;;;;;;21.67;61.57;100330.75;10378811;28;20045;-72
2023/08/13 23:00:46;;;;;;;4.13;0.90;;;;;;;21.58;62.01;100324.91;10381789;28;20112;-71
2023/08/13 23:05:47;;;;;;;4.05;1.02;;;;;;;21.54;61.95;100342.88;10381817;28;20084;-71
2023/08/13 23:10:49;;;;;;;3.63;1.20;;;;;;;21.28;63.01;100338.03;10382477;28;20053;-71